Time;durP1;ratioP1;P1;durP2;ratioP2;P2;SDS_P1;SDS_P2;PMS_P1;PMS_P2;Temp;Humidity;BMP_temperature;BMP_pressure;BME280_temperature;BME280_humidity;BME280_pressure;Samples;Min_cycle;Max_cycle;Signal;HPM_P1;HPM_P2
2022/05/24 00:01:20;;;;;;;9.93;3.40;;;;;;;;;;4939098;28;20749;-41
2022/05/24 00:03:46;;;;;;;9.07;3.37;;;;;;;;;;4924768;28;20240;-42
2022/05/24 00:06:13;;;;;;;9.63;3.57;;;;;;;;;;4942452;28;20171;-42
2022/05/24 00:08:39;;;;;;;7.30;3.27;;;;;;;;;;4942196;28;20178;-42
2022/05/24 00:11:06;;;;;;;7.80;3.60;;;;;;;;;;4938556;28;20185;-42
2022/05/24 00:13:32;;;;;;;9.07;3.83;;;;;;;;;;4941178;28;20770;-43
2022/05/24 00:15:58;;;;;;;8.03;3.20;;;;;;;;;;4940407;28;20190;-42
2022/05/24 00:18:26;;;;;;;6.93;3.50;;;;;;;;;;4942602;28;21120;-40
2022/05/24 00:20:56;;;;;;;11.13;3.80;;;;;;;;;;4938508;28;20182;-42
2022/05/24 00:23:23;;;;;;;9.00;4.90;;;;;;;;;;4943811;28;20572;-43
2022/05/24 00:25:52;;;;;;;11.20;5.87;;;;;;;;;;4914704;28;20535;-41
2022/05/24 00:28:19;;;;;;;8.47;4.40;;;;;;;;;;4942442;28;20336;-42
2022/05/24 00:30:47;;;;;;;9.50;5.20;;;;;;;;;;4942135;28;20183;-41
2022/05/24 00:33:14;;;;;;;16.13;5.37;;;;;;;;;;4942902;28;20206;-42
2022/05/24 00:35:40;;;;;;;10.27;4.90;;;;;;;;;;4942071;28;20597;-42
2022/05/24 00:38:09;;;;;;;11.20;5.60;;;;;;;;;;4946435;28;20186;-42
2022/05/24 00:40:54;;;;;;;10.77;5.23;;;;;;;;;;4939243;28;21111;-42
2022/05/24 00:43:34;;;;;;;11.57;6.47;;;;;;;;;;4939819;28;20623;-42
2022/05/24 00:46:03;;;;;;;8.80;5.53;;;;;;;;;;4944627;28;20785;-42
2022/05/24 00:48:33;;;;;;;8.37;5.40;;;;;;;;;;4921851;28;20513;-43
2022/05/24 00:51:00;;;;;;;13.40;7.33;;;;;;;;;;4939052;28;20630;-42
2022/05/24 00:53:30;;;;;;;9.40;6.23;;;;;;;;;;4940329;28;20269;-43
2022/05/24 00:55:59;;;;;;;11.90;6.00;;;;;;;;;;4940376;28;20629;-42
2022/05/24 00:58:51;;;;;;;11.30;6.27;;;;;;;;;;4941131;28;20289;-43
2022/05/24 01:01:20;;;;;;;9.93;6.33;;;;;;;;;;4939398;28;20190;-43
2022/05/24 01:03:46;;;;;;;12.07;6.60;;;;;;;;;;4937214;28;20964;-43
2022/05/24 01:06:12;;;;;;;9.67;6.90;;;;;;;;;;4938922;28;20226;-43
2022/05/24 01:08:39;;;;;;;15.10;7.73;;;;;;;;;;4939235;28;20175;-42
2022/05/24 01:11:06;;;;;;;14.73;7.73;;;;;;;;;;4940127;28;20175;-42
2022/05/24 01:13:32;;;;;;;11.40;8.00;;;;;;;;;;4939576;28;20797;-42
2022/05/24 01:15:58;;;;;;;13.77;7.90;;;;;;;;;;4944531;28;20469;-43
2022/05/24 01:18:24;;;;;;;13.80;8.00;;;;;;;;;;4938783;28;20748;-42
2022/05/24 01:20:55;;;;;;;9.70;7.77;;;;;;;;;;4938487;28;20253;-43
2022/05/24 01:23:27;;;;;;;16.57;8.70;;;;;;;;;;4943889;28;20190;-43
2022/05/24 01:26:09;;;;;;;12.30;7.83;;;;;;;;;;4938806;28;20170;-42
2022/05/24 01:28:41;;;;;;;11.60;8.20;;;;;;;;;;4938059;28;20170;-42
2022/05/24 01:31:07;;;;;;;12.30;8.07;;;;;;;;;;4939116;28;20350;-42
2022/05/24 01:36:20;;;;;;;12.93;8.90;;;;;;;;;;4941719;28;20342;-42
2022/05/24 01:38:51;;;;;;;12.77;9.23;;;;;;;;;;4940711;28;20205;-43
2022/05/24 01:41:22;;;;;;;12.97;8.90;;;;;;;;;;4939999;28;20179;-42
2022/05/24 01:43:50;;;;;;;11.07;8.23;;;;;;;;;;4940203;28;20210;-42
2022/05/24 01:46:18;;;;;;;11.33;8.00;;;;;;;;;;4941062;28;20378;-43
2022/05/24 01:48:46;;;;;;;14.37;9.00;;;;;;;;;;4939840;28;20699;-42
2022/05/24 01:51:14;;;;;;;14.70;8.87;;;;;;;;;;4942126;28;20174;-43
2022/05/24 01:53:45;;;;;;;12.27;9.43;;;;;;;;;;4936683;28;20179;-42
2022/05/24 01:56:26;;;;;;;13.17;8.97;;;;;;;;;;4937511;28;20186;-42
2022/05/24 01:58:54;;;;;;;14.30;8.03;;;;;;;;;;4942890;28;20269;-42
2022/05/24 02:01:23;;;;;;;14.53;8.07;;;;;;;;;;4942976;28;20418;-42
2022/05/24 02:03:49;;;;;;;14.33;8.57;;;;;;;;;;4938976;28;20277;-43
2022/05/24 02:06:18;;;;;;;14.47;8.13;;;;;;;;;;4938820;28;20171;-41
2022/05/24 02:08:44;;;;;;;15.33;8.00;;;;;;;;;;4942660;28;20174;-41
2022/05/24 02:11:10;;;;;;;12.77;8.20;;;;;;;;;;4943463;28;20250;-42
2022/05/24 02:13:38;;;;;;;14.40;8.90;;;;;;;;;;4939668;28;20187;-42
2022/05/24 02:16:07;;;;;;;16.57;8.37;;;;;;;;;;4938324;28;20183;-43
2022/05/24 02:18:33;;;;;;;15.10;8.57;;;;;;;;;;4942687;28;20187;-42
2022/05/24 02:20:59;;;;;;;15.93;8.63;;;;;;;;;;4943104;28;20174;-41
2022/05/24 02:23:25;;;;;;;15.47;9.07;;;;;;;;;;4941896;28;20198;-43
2022/05/24 02:25:53;;;;;;;19.13;9.03;;;;;;;;;;4939760;28;20254;-41
2022/05/24 02:28:20;;;;;;;12.97;8.33;;;;;;;;;;4939640;28;20665;-42
2022/05/24 02:30:48;;;;;;;15.50;8.00;;;;;;;;;;4941849;28;20305;-42
2022/05/24 02:33:14;;;;;;;13.87;8.67;;;;;;;;;;4939690;28;20183;-43
2022/05/24 02:35:40;;;;;;;18.23;9.40;;;;;;;;;;4937280;28;20183;-43
2022/05/24 02:38:07;;;;;;;12.57;9.60;;;;;;;;;;4941750;28;20255;-43
2022/05/24 02:43:18;;;;;;;15.63;8.67;;;;;;;;;;4940230;28;20814;-43
2022/05/24 02:45:44;;;;;;;18.30;9.07;;;;;;;;;;4935744;28;20179;-43
2022/05/24 02:48:10;;;;;;;18.40;9.10;;;;;;;;;;4941670;28;20171;-43
2022/05/24 02:50:37;;;;;;;16.23;9.40;;;;;;;;;;4938433;28;20182;-43
2022/05/24 02:53:03;;;;;;;15.63;9.20;;;;;;;;;;4939062;28;20257;-44
2022/05/24 02:55:30;;;;;;;17.67;10.30;;;;;;;;;;4943769;28;20182;-41
2022/05/24 02:57:56;;;;;;;13.33;9.13;;;;;;;;;;4943441;28;20393;-43
2022/05/24 03:00:23;;;;;;;14.80;9.67;;;;;;;;;;4944701;28;20185;-42
2022/05/24 03:02:50;;;;;;;17.03;9.60;;;;;;;;;;4946318;28;20218;-43
2022/05/24 03:05:16;;;;;;;14.33;9.47;;;;;;;;;;4943750;28;20191;-42
2022/05/24 03:10:28;;;;;;;15.43;9.03;;;;;;;;;;4942971;28;21068;-43
2022/05/24 03:15:40;;;;;;;13.73;9.33;;;;;;;;;;4941244;28;20213;-42
2022/05/24 03:18:11;;;;;;;16.37;10.90;;;;;;;;;;4944021;28;20665;-42
2022/05/24 03:20:37;;;;;;;15.53;9.83;;;;;;;;;;4946501;28;20174;-43
2022/05/24 03:23:04;;;;;;;13.83;9.87;;;;;;;;;;4943141;28;20198;-43
2022/05/24 03:25:31;;;;;;;15.50;10.40;;;;;;;;;;4943471;28;20242;-42
2022/05/24 03:27:58;;;;;;;16.87;10.07;;;;;;;;;;4942653;28;20183;-43
2022/05/24 03:30:25;;;;;;;18.23;11.27;;;;;;;;;;4944840;28;20339;-43
2022/05/24 03:32:51;;;;;;;14.50;11.10;;;;;;;;;;4941862;28;20863;-43
2022/05/24 03:35:17;;;;;;;18.73;12.07;;;;;;;;;;4939848;28;20943;-43
2022/05/24 03:37:43;;;;;;;18.43;12.23;;;;;;;;;;4941642;28;20198;-42
2022/05/24 03:40:10;;;;;;;19.90;11.90;;;;;;;;;;4943159;28;20183;-43
2022/05/24 03:42:36;;;;;;;18.77;12.20;;;;;;;;;;4942630;28;20229;-43
2022/05/24 03:45:04;;;;;;;18.63;12.07;;;;;;;;;;4940256;28;20201;-43
2022/05/24 03:47:30;;;;;;;20.60;11.93;;;;;;;;;;4942084;28;20509;-43
2022/05/24 03:49:56;;;;;;;22.23;12.97;;;;;;;;;;4940600;28;20217;-43
2022/05/24 03:52:22;;;;;;;19.27;12.23;;;;;;;;;;4920214;28;20239;-44
2022/05/24 03:54:48;;;;;;;21.07;12.07;;;;;;;;;;4943000;28;20454;-41
2022/05/24 03:59:59;;;;;;;17.63;12.00;;;;;;;;;;4942885;28;20181;-43
2022/05/24 04:02:25;;;;;;;17.03;12.80;;;;;;;;;;4935302;28;20176;-41
2022/05/24 04:04:51;;;;;;;21.33;12.93;;;;;;;;;;4943326;28;20190;-43
2022/05/24 04:07:17;;;;;;;23.33;13.10;;;;;;;;;;4943354;28;20646;-43
2022/05/24 04:09:43;;;;;;;23.33;13.87;;;;;;;;;;4937792;28;20610;-43
2022/05/24 04:12:10;;;;;;;23.43;13.30;;;;;;;;;;4920346;28;20608;-42
2022/05/24 04:14:36;;;;;;;22.67;13.70;;;;;;;;;;4947278;28;20187;-43
2022/05/24 04:17:02;;;;;;;24.17;13.30;;;;;;;;;;4937163;28;20826;-43
2022/05/24 04:19:28;;;;;;;31.80;15.07;;;;;;;;;;4939823;28;20654;-43
2022/05/24 04:21:54;;;;;;;33.60;15.70;;;;;;;;;;4941981;28;20182;-42
2022/05/24 04:24:21;;;;;;;23.90;15.33;;;;;;;;;;4939451;28;20207;-43
2022/05/24 04:26:47;;;;;;;25.38;15.43;;;;;;;;;;4938175;28;20475;-43
2022/05/24 04:29:13;;;;;;;26.17;15.27;;;;;;;;;;4941675;28;20182;-43
2022/05/24 04:31:40;;;;;;;31.77;17.10;;;;;;;;;;4941410;28;20470;-41
2022/05/24 04:34:06;;;;;;;25.17;17.37;;;;;;;;;;4945560;28;20974;-42
2022/05/24 04:36:32;;;;;;;31.27;17.67;;;;;;;;;;4938116;28;20178;-42
2022/05/24 04:38:59;;;;;;;22.17;15.20;;;;;;;;;;4940896;28;20186;-43
2022/05/24 04:44:10;;;;;;;26.43;17.20;;;;;;;;;;4942966;28;20777;-43
2022/05/24 04:49:22;;;;;;;24.03;16.03;;;;;;;;;;4942979;28;20214;-43
2022/05/24 04:51:48;;;;;;;29.63;16.90;;;;;;;;;;4944714;28;20726;-43
2022/05/24 04:54:14;;;;;;;22.90;15.80;;;;;;;;;;4938545;28;20456;-43
2022/05/24 04:56:41;;;;;;;26.80;16.93;;;;;;;;;;4937202;28;20186;-43
2022/05/24 04:59:07;;;;;;;33.70;18.53;;;;;;;;;;4938018;28;20190;-43
2022/05/24 05:01:33;;;;;;;22.43;16.73;;;;;;;;;;4942504;28;20745;-43
2022/05/24 05:03:59;;;;;;;31.07;18.30;;;;;;;;;;4940581;28;20209;-43
2022/05/24 05:06:25;;;;;;;32.00;18.43;;;;;;;;;;4943693;28;20448;-42
2022/05/24 05:08:51;;;;;;;30.57;20.40;;;;;;;;;;4941615;28;20566;-43
2022/05/24 05:11:17;;;;;;;29.37;19.10;;;;;;;;;;4937562;28;20171;-43
2022/05/24 05:13:43;;;;;;;33.67;21.90;;;;;;;;;;4944701;28;20237;-43
2022/05/24 05:16:09;;;;;;;31.23;19.43;;;;;;;;;;4940949;28;20549;-43
2022/05/24 05:18:35;;;;;;;32.30;20.37;;;;;;;;;;4939231;28;21812;-42
2022/05/24 05:21:02;;;;;;;36.10;21.73;;;;;;;;;;4942082;28;20395;-43
2022/05/24 05:23:28;;;;;;;37.77;23.07;;;;;;;;;;4919991;28;20194;-43
2022/05/24 05:25:55;;;;;;;45.87;25.17;;;;;;;;;;4939635;28;20179;-42
2022/05/24 05:28:21;;;;;;;45.53;25.97;;;;;;;;;;4937137;28;20175;-43
2022/05/24 05:33:33;;;;;;;43.17;25.33;;;;;;;;;;4941873;28;21092;-44
2022/05/24 05:35:59;;;;;;;53.17;30.27;;;;;;;;;;4940683;28;20210;-43
2022/05/24 05:38:25;;;;;;;55.73;32.23;;;;;;;;;;4936413;28;20178;-42
2022/05/24 05:40:52;;;;;;;53.17;32.70;;;;;;;;;;4937214;28;20653;-42
2022/05/24 05:43:19;;;;;;;54.13;31.00;;;;;;;;;;4941338;28;20207;-44
2022/05/24 05:45:52;;;;;;;63.87;35.07;;;;;;;;;;4941615;28;20171;-44
2022/05/24 05:48:18;;;;;;;52.43;33.00;;;;;;;;;;4944120;28;20193;-44
2022/05/24 05:50:44;;;;;;;57.17;34.20;;;;;;;;;;4940084;28;20179;-44
2022/05/24 05:53:10;;;;;;;46.87;31.77;;;;;;;;;;4938786;28;20175;-44
2022/05/24 05:55:37;;;;;;;62.27;37.47;;;;;;;;;;4944487;28;20186;-44
2022/05/24 05:58:03;;;;;;;49.73;32.63;;;;;;;;;;4941711;28;20485;-44
2022/05/24 06:00:29;;;;;;;52.27;35.50;;;;;;;;;;4943837;28;20182;-44
2022/05/24 06:02:55;;;;;;;51.83;33.07;;;;;;;;;;4946160;28;20599;-44
2022/05/24 06:05:21;;;;;;;50.40;32.50;;;;;;;;;;4942566;28;20654;-44
2022/05/24 06:07:47;;;;;;;58.20;36.20;;;;;;;;;;4940334;28;20714;-44
2022/05/24 06:10:13;;;;;;;47.43;32.07;;;;;;;;;;4943098;28;20182;-44
2022/05/24 06:12:39;;;;;;;53.53;34.27;;;;;;;;;;4944098;28;20265;-44
2022/05/24 06:15:06;;;;;;;50.80;33.17;;;;;;;;;;4942150;28;20182;-44
2022/05/24 06:17:32;;;;;;;49.80;32.80;;;;;;;;;;4941121;28;20512;-43
2022/05/24 06:19:59;;;;;;;47.07;31.63;;;;;;;;;;4943572;28;20238;-44
2022/05/24 06:22:25;;;;;;;53.97;35.63;;;;;;;;;;4941270;28;20254;-44
2022/05/24 06:24:51;;;;;;;51.37;34.33;;;;;;;;;;4938102;28;20600;-44
2022/05/24 06:27:24;;;;;;;45.17;33.03;;;;;;;;;;4918451;28;20676;-44
2022/05/24 06:29:51;;;;;;;48.30;33.43;;;;;;;;;;4942522;28;20186;-44
2022/05/24 06:32:17;;;;;;;45.00;31.33;;;;;;;;;;4943969;28;20659;-43
2022/05/24 06:34:43;;;;;;;48.93;32.03;;;;;;;;;;4941138;28;20197;-43
2022/05/24 06:37:09;;;;;;;46.77;32.00;;;;;;;;;;4942381;28;20587;-43
2022/05/24 06:39:35;;;;;;;51.23;33.17;;;;;;;;;;4945129;28;20538;-44
2022/05/24 06:42:01;;;;;;;49.73;32.50;;;;;;;;;;4946313;28;20302;-43
2022/05/24 06:44:27;;;;;;;47.23;34.13;;;;;;;;;;4944378;28;20211;-44
2022/05/24 06:46:54;;;;;;;40.53;30.30;;;;;;;;;;4947232;28;20257;-44
2022/05/24 06:49:20;;;;;;;51.27;35.10;;;;;;;;;;4946116;28;20179;-44
2022/05/24 06:51:46;;;;;;;46.30;31.17;;;;;;;;;;4947908;28;20234;-44
2022/05/24 06:54:12;;;;;;;40.37;31.03;;;;;;;;;;4945100;28;20179;-44
2022/05/24 06:56:38;;;;;;;45.57;32.70;;;;;;;;;;4947323;28;20183;-44
2022/05/24 07:04:34;;;;;;;46.80;33.53;;;;;;;;;;4946201;28;20225;-43
2022/05/24 07:07:00;;;;;;;40.70;30.07;;;;;;;;;;4945860;28;20194;-44
2022/05/24 07:09:31;;;;;;;44.77;31.07;;;;;;;;;;4947627;28;20308;-44
2022/05/24 07:11:57;;;;;;;44.40;32.47;;;;;;;;;;4948189;28;20221;-44
2022/05/24 07:14:23;;;;;;;39.97;29.53;;;;;;;;;;4947839;28;20186;-42
2022/05/24 07:16:49;;;;;;;51.77;34.37;;;;;;;;;;4944239;28;20892;-44
2022/05/24 07:19:15;;;;;;;48.33;33.93;;;;;;;;;;4948358;28;20774;-44
2022/05/24 07:21:41;;;;;;;44.73;31.40;;;;;;;;;;4945030;28;20714;-44
2022/05/24 07:24:07;;;;;;;41.77;30.73;;;;;;;;;;4946303;28;20203;-43
2022/05/24 07:26:33;;;;;;;37.77;29.20;;;;;;;;;;4945418;28;20676;-44
2022/05/24 07:28:59;;;;;;;44.47;31.70;;;;;;;;;;4944889;28;20506;-44
2022/05/24 07:31:25;;;;;;;46.80;29.03;;;;;;;;;;4946805;28;20280;-42
2022/05/24 07:33:51;;;;;;;36.87;27.47;;;;;;;;;;4948171;28;20194;-44
2022/05/24 07:36:18;;;;;;;40.50;29.43;;;;;;;;;;4945973;28;20992;-44
2022/05/24 07:38:44;;;;;;;34.53;27.87;;;;;;;;;;4944222;28;20194;-44
2022/05/24 07:46:39;;;;;;;36.80;27.97;;;;;;;;;;4947260;28;20491;-44
2022/05/24 07:49:06;;;;;;;34.27;26.97;;;;;;;;;;4949136;28;20187;-43
2022/05/24 07:51:32;;;;;;;39.50;28.00;;;;;;;;;;4945581;28;20221;-44
2022/05/24 07:54:00;;;;;;;38.13;26.80;;;;;;;;;;4941730;28;20205;-44
2022/05/24 07:56:26;;;;;;;43.17;29.40;;;;;;;;;;4953143;28;20293;-44
2022/05/24 07:58:52;;;;;;;40.50;27.70;;;;;;;;;;4949605;28;20241;-43
2022/05/24 08:01:19;;;;;;;42.47;29.00;;;;;;;;;;4946468;28;20181;-44
2022/05/24 08:03:45;;;;;;;36.43;28.07;;;;;;;;;;4944382;28;20770;-43
2022/05/24 08:06:12;;;;;;;33.30;25.77;;;;;;;;;;4950744;28;20183;-44
2022/05/24 08:08:38;;;;;;;29.93;24.60;;;;;;;;;;4947998;28;20276;-44
2022/05/24 08:11:05;;;;;;;36.30;25.63;;;;;;;;;;4944695;28;20229;-44
2022/05/24 08:13:31;;;;;;;34.93;26.03;;;;;;;;;;4947394;28;20205;-43
2022/05/24 08:15:57;;;;;;;35.27;25.40;;;;;;;;;;4945946;28;20229;-42
2022/05/24 08:18:24;;;;;;;32.33;25.60;;;;;;;;;;4945167;28;20910;-43
2022/05/24 08:20:50;;;;;;;34.00;25.67;;;;;;;;;;4944833;28;20250;-43
2022/05/24 08:23:18;;;;;;;32.73;24.43;;;;;;;;;;4945640;28;20229;-43
2022/05/24 08:25:44;;;;;;;28.57;23.03;;;;;;;;;;4946953;28;20179;-43
2022/05/24 08:28:10;;;;;;;34.10;22.10;;;;;;;;;;4946627;28;20421;-44
2022/05/24 08:30:37;;;;;;;30.57;19.97;;;;;;;;;;4944974;28;20501;-43
2022/05/24 08:33:04;;;;;;;25.73;19.40;;;;;;;;;;4942976;28;20524;-43
2022/05/24 08:35:32;;;;;;;22.43;19.93;;;;;;;;;;4946227;28;20649;-43
2022/05/24 08:37:58;;;;;;;23.73;20.27;;;;;;;;;;4946387;28;20195;-43
2022/05/24 08:40:24;;;;;;;28.03;20.87;;;;;;;;;;4941250;28;20194;-43
2022/05/24 08:43:09;;;;;;;30.77;22.63;;;;;;;;;;4945336;28;20309;-43
2022/05/24 08:48:38;;;;;;;28.77;21.00;;;;;;;;;;4944376;28;20762;-43
2022/05/24 08:51:12;;;;;;;27.60;19.87;;;;;;;;;;4946111;28;20205;-43
2022/05/24 08:53:50;;;;;;;30.53;21.90;;;;;;;;;;4946260;28;21137;-43
2022/05/24 08:56:21;;;;;;;20.77;18.13;;;;;;;;;;4942026;28;20273;-43
2022/05/24 08:58:50;;;;;;;27.73;19.17;;;;;;;;;;4918775;28;20182;-43
2022/05/24 09:01:23;;;;;;;24.30;16.83;;;;;;;;;;4946602;28;20973;-44
2022/05/24 09:03:50;;;;;;;24.77;19.17;;;;;;;;;;4936531;28;20526;-42
2022/05/24 09:06:34;;;;;;;24.20;19.80;;;;;;;;;;4942279;28;20431;-43
2022/05/24 09:09:13;;;;;;;27.63;19.87;;;;;;;;;;4945917;28;20193;-44
2022/05/24 09:12:00;;;;;;;22.70;19.10;;;;;;;;;;4942069;28;20171;-44
2022/05/24 09:14:29;;;;;;;22.57;17.47;;;;;;;;;;4943892;28;20582;-43
2022/05/24 09:17:04;;;;;;;29.23;17.87;;;;;;;;;;4945974;28;20733;-44
2022/05/24 09:19:35;;;;;;;20.17;16.60;;;;;;;;;;4942640;28;20210;-43
2022/05/24 09:22:03;;;;;;;23.77;15.07;;;;;;;;;;4939032;28;20226;-43
2022/05/24 09:24:44;;;;;;;22.63;16.03;;;;;;;;;;4944765;28;20211;-42
2022/05/24 09:27:10;;;;;;;21.47;16.10;;;;;;;;;;4945297;28;20300;-44
2022/05/24 09:29:37;;;;;;;23.53;14.93;;;;;;;;;;4943020;28;20190;-44
2022/05/24 09:32:08;;;;;;;23.27;16.33;;;;;;;;;;4943035;28;20182;-44
2022/05/24 09:34:36;;;;;;;19.60;14.07;;;;;;;;;;4948027;28;20585;-43
2022/05/24 09:37:04;;;;;;;19.70;14.13;;;;;;;;;;4940841;28;20290;-43
2022/05/24 09:39:32;;;;;;;20.27;14.63;;;;;;;;;;4945258;28;20195;-42
2022/05/24 09:42:15;;;;;;;19.53;13.57;;;;;;;;;;4943846;28;20183;-43
2022/05/24 09:44:49;;;;;;;13.97;8.00;;;;;;;;;;4941364;28;20211;-43
2022/05/24 09:47:23;;;;;;;14.93;8.77;;;;;;;;;;4942930;28;20213;-43
2022/05/24 09:49:49;;;;;;;13.83;9.37;;;;;;;;;;4944350;28;20190;-43
2022/05/24 09:52:15;;;;;;;14.80;8.37;;;;;;;;;;4942697;28;20193;-43
2022/05/24 09:54:56;;;;;;;14.07;9.80;;;;;;;;;;4940687;28;20186;-43
2022/05/24 09:57:23;;;;;;;20.90;11.80;;;;;;;;;;4944612;28;20723;-43
2022/05/24 10:00:15;;;;;;;19.33;11.20;;;;;;;;;;4945295;28;20371;-43
2022/05/24 10:02:42;;;;;;;15.90;10.37;;;;;;;;;;4942039;28;20186;-43
2022/05/24 10:05:20;;;;;;;15.70;10.33;;;;;;;;;;4950491;28;20209;-43
2022/05/24 10:07:58;;;;;;;16.93;10.67;;;;;;;;;;4954714;28;20504;-44
2022/05/24 10:10:27;;;;;;;14.00;9.27;;;;;;;;;;4948287;28;20533;-43
2022/05/24 10:13:11;;;;;;;15.63;9.73;;;;;;;;;;4952523;28;20194;-44
2022/05/24 10:15:39;;;;;;;18.40;11.43;;;;;;;;;;4951471;28;20191;-43
2022/05/24 10:18:15;;;;;;;13.73;9.43;;;;;;;;;;4948645;28;20182;-43
2022/05/24 10:21:04;;;;;;;14.40;8.67;;;;;;;;;;4951661;28;20501;-42
2022/05/24 10:23:49;;;;;;;13.47;9.03;;;;;;;;;;4938870;28;20617;-43
2022/05/24 10:26:15;;;;;;;12.60;8.00;;;;;;;;;;4946496;28;20180;-43
2022/05/24 10:28:41;;;;;;;16.50;8.10;;;;;;;;;;4951964;28;20166;-43
2022/05/24 10:31:10;;;;;;;14.27;8.13;;;;;;;;;;4951959;28;20228;-43
2022/05/24 10:39:21;;;;;;;18.23;7.87;;;;;;;;;;4952284;28;20643;-43
2022/05/24 10:41:53;;;;;;;15.80;7.50;;;;;;;;;;4950560;28;20186;-42
2022/05/24 10:44:31;;;;;;;13.67;7.80;;;;;;;;;;4947635;28;20212;-43
2022/05/24 10:47:19;;;;;;;16.53;7.70;;;;;;;;;;4948656;28;20589;-43
2022/05/24 10:50:01;;;;;;;11.90;6.73;;;;;;;;;;4946664;28;20178;-44
2022/05/24 10:52:42;;;;;;;14.83;6.83;;;;;;;;;;4949100;28;20509;-43
2022/05/24 10:55:11;;;;;;;17.67;8.20;;;;;;;;;;4950736;28;20175;-43
2022/05/24 10:57:43;;;;;;;14.60;7.90;;;;;;;;;;4948955;28;20559;-43
2022/05/24 11:00:13;;;;;;;15.07;8.20;;;;;;;;;;4950420;28;20422;-43
2022/05/24 11:02:42;;;;;;;13.80;7.77;;;;;;;;;;4951988;28;20181;-43
2022/05/24 11:05:21;;;;;;;17.77;7.80;;;;;;;;;;4947402;28;20291;-42
2022/05/24 11:07:49;;;;;;;14.27;7.20;;;;;;;;;;4948238;28;20177;-43
2022/05/24 11:10:18;;;;;;;11.50;7.07;;;;;;;;;;4951414;28;20699;-43
2022/05/24 11:12:47;;;;;;;13.77;7.50;;;;;;;;;;4945913;28;20174;-43
2022/05/24 11:15:18;;;;;;;13.67;7.47;;;;;;;;;;4947867;28;20766;-43
2022/05/24 11:17:46;;;;;;;14.63;7.80;;;;;;;;;;4947354;28;20285;-43
2022/05/24 11:20:12;;;;;;;11.70;6.70;;;;;;;;;;4942008;28;20890;-43
2022/05/24 11:22:47;;;;;;;15.30;7.53;;;;;;;;;;4950085;28;20197;-43
2022/05/24 11:25:16;;;;;;;16.90;7.30;;;;;;;;;;4944186;28;20698;-42
2022/05/24 11:27:44;;;;;;;14.97;7.53;;;;;;;;;;4943382;28;20695;-42
2022/05/24 11:30:15;;;;;;;12.00;6.97;;;;;;;;;;4939880;28;20694;-43
2022/05/24 11:32:44;;;;;;;12.00;7.47;;;;;;;;;;4947032;28;20266;-43
2022/05/24 11:35:10;;;;;;;17.90;7.03;;;;;;;;;;4947862;28;20421;-43
2022/05/24 11:37:38;;;;;;;17.43;7.30;;;;;;;;;;4947004;28;21010;-43
2022/05/24 11:40:23;;;;;;;14.40;7.33;;;;;;;;;;4945225;28;20459;-43
2022/05/24 11:42:49;;;;;;;17.70;7.50;;;;;;;;;;4947408;28;20183;-43
2022/05/24 11:45:31;;;;;;;13.67;7.50;;;;;;;;;;4944887;28;20179;-43
2022/05/24 11:48:07;;;;;;;13.53;7.00;;;;;;;;;;4942238;28;20175;-42
2022/05/24 11:50:33;;;;;;;9.93;7.00;;;;;;;;;;4947904;28;20170;-42
2022/05/24 11:53:01;;;;;;;12.90;6.93;;;;;;;;;;4944267;28;21074;-42
2022/05/24 11:55:39;;;;;;;14.43;7.07;;;;;;;;;;4945053;28;20677;-43
2022/05/24 11:58:26;;;;;;;13.17;6.67;;;;;;;;;;4950656;28;20173;-43
2022/05/24 12:01:00;;;;;;;12.50;6.53;;;;;;;;;;4931460;28;20504;-43
2022/05/24 12:09:15;;;;;;;15.80;6.73;;;;;;;;;;4944548;28;20189;-42
2022/05/24 12:11:42;;;;;;;11.87;6.37;;;;;;;;;;4946982;28;20186;-43
2022/05/24 12:14:33;;;;;;;15.33;6.83;;;;;;;;;;4945836;28;20202;-42
2022/05/24 12:17:02;;;;;;;13.23;7.37;;;;;;;;;;4945175;28;20194;-43
2022/05/24 12:19:38;;;;;;;15.43;7.03;;;;;;;;;;4947965;28;20345;-42
2022/05/24 12:22:33;;;;;;;16.83;7.10;;;;;;;;;;4943828;28;20178;-43
2022/05/24 12:25:03;;;;;;;12.33;6.37;;;;;;;;;;4944126;28;20920;-43
2022/05/24 12:27:36;;;;;;;9.70;5.80;;;;;;;;;;4947323;28;20420;-43
2022/05/24 12:30:21;;;;;;;13.23;6.47;;;;;;;;;;4944905;28;20190;-43
2022/05/24 12:32:47;;;;;;;15.53;7.37;;;;;;;;;;4944846;28;20182;-42
2022/05/24 12:35:14;;;;;;;16.17;7.40;;;;;;;;;;4944165;28;20226;-42
2022/05/24 12:37:56;;;;;;;13.20;6.73;;;;;;;;;;4944461;28;20179;-43
2022/05/24 12:40:27;;;;;;;13.03;6.70;;;;;;;;;;4945716;28;20178;-42
2022/05/24 12:42:55;;;;;;;9.47;6.10;;;;;;;;;;4941151;28;22592;-42
2022/05/24 12:45:38;;;;;;;11.27;6.10;;;;;;;;;;4946708;28;20231;-43
2022/05/24 12:48:05;;;;;;;15.10;6.73;;;;;;;;;;4923129;28;20205;-43
2022/05/24 12:50:37;;;;;;;14.30;6.67;;;;;;;;;;4944694;28;20679;-43
2022/05/24 12:53:06;;;;;;;14.33;6.43;;;;;;;;;;4940159;28;20194;-43
2022/05/24 12:58:29;;;;;;;15.80;6.80;;;;;;;;;;4944958;28;20269;-43
2022/05/24 13:01:15;;;;;;;12.27;6.60;;;;;;;;;;4939671;28;20275;-42
2022/05/24 13:03:47;;;;;;;11.70;6.53;;;;;;;;;;4933640;28;20219;-42
2022/05/24 13:06:23;;;;;;;11.17;6.70;;;;;;;;;;4948478;28;20301;-43
2022/05/24 13:09:08;;;;;;;12.47;6.60;;;;;;;;;;4938949;28;20206;-43
2022/05/24 13:11:35;;;;;;;14.43;6.17;;;;;;;;;;4944841;28;20192;-42
2022/05/24 13:14:01;;;;;;;14.40;6.83;;;;;;;;;;4944066;28;20175;-43
2022/05/24 13:16:27;;;;;;;15.17;6.77;;;;;;;;;;4945831;28;20225;-43
2022/05/24 13:18:55;;;;;;;12.53;6.27;;;;;;;;;;4945709;28;20282;-43
2022/05/24 13:21:23;;;;;;;9.67;5.97;;;;;;;;;;4944681;28;20175;-42
2022/05/24 13:23:49;;;;;;;8.77;6.23;;;;;;;;;;4944425;28;20969;-43
2022/05/24 13:26:17;;;;;;;11.30;6.10;;;;;;;;;;4943910;28;20179;-43
2022/05/24 13:28:56;;;;;;;13.23;6.07;;;;;;;;;;4943851;28;20183;-43
2022/05/24 13:34:34;;;;;;;12.00;6.03;;;;;;;;;;4945324;28;20218;-42
2022/05/24 13:37:07;;;;;;;10.60;6.23;;;;;;;;;;4945366;28;20725;-43
2022/05/24 13:39:36;;;;;;;10.67;5.43;;;;;;;;;;4942815;28;20332;-43
2022/05/24 13:42:03;;;;;;;12.87;6.60;;;;;;;;;;4947553;28;20175;-43
2022/05/24 13:44:34;;;;;;;9.53;5.90;;;;;;;;;;4946496;28;20285;-43
2022/05/24 13:47:03;;;;;;;14.00;6.30;;;;;;;;;;4943489;28;20820;-42
2022/05/24 13:49:31;;;;;;;9.40;6.20;;;;;;;;;;4942611;28;20826;-43
2022/05/24 13:52:17;;;;;;;11.50;6.27;;;;;;;;;;4937744;28;20201;-43
2022/05/24 13:54:44;;;;;;;13.17;6.30;;;;;;;;;;4931822;28;20258;-43
2022/05/24 13:57:27;;;;;;;12.23;6.07;;;;;;;;;;4940837;28;20170;-43
2022/05/24 13:59:56;;;;;;;13.97;6.37;;;;;;;;;;4943839;28;20258;-43
2022/05/24 14:02:24;;;;;;;12.43;5.67;;;;;;;;;;4942304;28;20734;-43
2022/05/24 14:04:50;;;;;;;11.67;5.50;;;;;;;;;;4938940;28;20211;-43
2022/05/24 14:07:18;;;;;;;12.43;5.80;;;;;;;;;;4939892;28;20190;-43
2022/05/24 14:09:44;;;;;;;12.23;5.57;;;;;;;;;;4939295;28;20190;-43
2022/05/24 14:12:10;;;;;;;11.37;6.00;;;;;;;;;;4941346;28;20171;-43
2022/05/24 14:14:37;;;;;;;10.37;5.37;;;;;;;;;;4945372;28;20782;-43
2022/05/24 14:17:08;;;;;;;13.57;5.53;;;;;;;;;;4941304;28;20676;-43
2022/05/24 14:19:34;;;;;;;12.10;5.83;;;;;;;;;;4943098;28;20741;-42
2022/05/24 14:22:01;;;;;;;11.13;5.50;;;;;;;;;;4945158;28;20925;-43
2022/05/24 14:24:27;;;;;;;9.73;5.70;;;;;;;;;;4941340;28;20365;-42
2022/05/24 14:26:56;;;;;;;14.57;6.00;;;;;;;;;;4938487;28;20316;-43
2022/05/24 14:29:23;;;;;;;9.23;5.07;;;;;;;;;;4939944;28;20313;-42
2022/05/24 14:31:50;;;;;;;8.77;5.30;;;;;;;;;;4939542;28;20179;-43
2022/05/24 14:34:18;;;;;;;11.20;4.90;;;;;;;;;;4941436;28;20403;-43
2022/05/24 14:36:44;;;;;;;11.87;5.20;;;;;;;;;;4940432;28;20593;-42
2022/05/24 14:39:11;;;;;;;12.83;5.30;;;;;;;;;;4943756;28;20185;-44
2022/05/24 14:41:38;;;;;;;11.37;5.23;;;;;;;;;;4944473;28;20475;-43
2022/05/24 14:44:04;;;;;;;10.57;5.40;;;;;;;;;;4942928;28;20876;-44
2022/05/24 14:46:35;;;;;;;9.73;4.57;;;;;;;;;;4945325;28;20186;-43
2022/05/24 14:49:03;;;;;;;11.00;5.50;;;;;;;;;;4925140;28;20191;-43
2022/05/24 14:51:35;;;;;;;9.07;5.03;;;;;;;;;;4944185;28;20723;-43
2022/05/24 14:54:03;;;;;;;10.07;5.40;;;;;;;;;;4947212;28;20184;-44
2022/05/24 14:56:29;;;;;;;9.13;5.60;;;;;;;;;;4947046;28;20183;-42
2022/05/24 14:58:55;;;;;;;9.87;5.40;;;;;;;;;;4943548;28;20180;-43
2022/05/24 15:01:22;;;;;;;10.70;5.30;;;;;;;;;;4943299;28;20279;-43
2022/05/24 15:03:48;;;;;;;12.37;5.77;;;;;;;;;;4945511;28;20219;-43
2022/05/24 15:06:14;;;;;;;10.53;5.40;;;;;;;;;;4943062;28;20262;-43
2022/05/24 15:16:55;;;;;;;14.07;5.93;;;;;;;;;;4944472;28;20190;-43
2022/05/24 15:19:21;;;;;;;8.27;5.10;;;;;;;;;;4947497;28;20187;-43
2022/05/24 15:21:48;;;;;;;9.13;5.80;;;;;;;;;;4943781;28;20770;-43
2022/05/24 15:24:18;;;;;;;20.07;5.67;;;;;;;;;;4940091;28;20203;-43
2022/05/24 15:26:46;;;;;;;14.07;5.83;;;;;;;;;;4945017;28;20669;-43
2022/05/24 15:29:12;;;;;;;13.43;6.03;;;;;;;;;;4945821;28;20179;-43
2022/05/24 15:31:41;;;;;;;12.17;5.70;;;;;;;;;;4945245;28;20172;-43
2022/05/24 15:34:07;;;;;;;11.87;5.40;;;;;;;;;;4946236;28;20195;-43
2022/05/24 15:36:33;;;;;;;9.53;5.80;;;;;;;;;;4946237;28;20182;-43
2022/05/24 15:38:59;;;;;;;14.00;5.83;;;;;;;;;;4948824;28;20185;-43